Terminal Aerodrome Forecast
Issued by NWS Jackson, KY

Home | Current Version | Previous Version | Text Only | Print | Product List | Glossary On
Versions: 1 2 3 4 5 6 7 8 9 10 11 12 13 14 15 16
000
FTUS43 KJKL 302300
TAFLOZ
TAF
KLOZ 302321Z 3100/3124 VRB03KT P6SM SCT100 BKN200
     FM310800 00000KT P6SM VCSH SCT035 BKN080
     FM311400 VRB03KT 6SM -SHRA BR SCT025 BKN040
     FM311800 VRB06KT 2SM -SHRA BR OVC025=

USA.gov is the U.S. government's official web portal to all federal, state and local government web resources and services.